LTAT/MLX METAR and TAF weather

Enter ICAO airport designator
Station Type Date Time Source
LTAT METAR 2022/11/30 10:20 UTC NOAA

LTAT 301020Z 00000KT 9999 SCT018 BKN033 OVC080 09/09 Q1020 NOSIG


Station Type Date Time Source
LTAT Decoded METAR 2022/11/30 10:20 UTC NOAA

Malatya / Erhac, Turkey (LTAT) 38-26N 038-05E 849M
Nov 30, 2022 - 05:20 AM EST / 2022.11.30 1020 UTC
Wind: Calm:0
Visibility: greater than 7 mile(s):0
Sky conditions: overcast
Temperature: 48 F (9 C)
Dew Point: 48 F (9 C)
Relative Humidity: 100%
Pressure (altimeter): 30.12 in. Hg (1020 hPa)
ob: LTAT 301020Z 00000KT 9999 SCT018 BKN033 OVC080 09/09 Q1020 NOSIG
cycle: 10

Station Type Date Time Source
LTAT TAF 2022/11/30 06:03 UTC NOAA

TAF LTAT 300440Z 3006/0106 34006KT 9999 SCT040 BKN100
TEMPO 3006/3010 -RA FEW015 BKN035 OVC090
TEMPO 3011/3015 -RA FEW015 BKN035 OVC090

Example: see airport list